createdAt,value
2023-10-03T00:00:26.448Z,23.15
2023-10-03T00:03:29.564Z,26.17
2023-10-03T00:06:34.967Z,26.58
2023-10-03T00:09:37.109Z,25.85
2023-10-03T00:12:39.510Z,24.90
2023-10-03T00:15:45.731Z,23.63
2023-10-03T00:18:47.779Z,22.50
2023-10-03T00:21:50.083Z,23.95
2023-10-03T00:24:52.522Z,24.13
2023-10-03T00:27:58.958Z,21.23
2023-10-03T00:31:01.733Z,22.83
2023-10-03T00:34:04.088Z,24.30
2023-10-03T00:37:06.407Z,20.83
2023-10-03T00:40:18.952Z,22.88
2023-10-03T00:43:21.261Z,21.73
2023-10-03T00:46:24.319Z,29.48
2023-10-03T00:49:30.095Z,23.65
2023-10-03T00:52:33.487Z,21.25
2023-10-03T00:55:39.117Z,20.38
2023-10-03T00:58:42.583Z,26.98
2023-10-03T01:01:47.721Z,21.52
2023-10-03T01:04:50.594Z,21.77
2023-10-03T01:07:53.048Z,23.38
2023-10-03T01:11:00.016Z,21.30
2023-10-03T01:14:02.215Z,25.95
2023-10-03T01:17:07.371Z,25.27
2023-10-03T01:20:24.612Z,25.42
2023-10-03T01:23:31.276Z,25.98
2023-10-03T01:26:33.698Z,24.35
2023-10-03T01:29:35.841Z,24.63
2023-10-03T01:32:52.203Z,28.38
2023-10-03T01:35:55.358Z,22.73
2023-10-03T01:38:57.508Z,23.73
2023-10-03T01:41:59.735Z,24.05
2023-10-03T01:45:01.797Z,23.52
2023-10-03T01:48:06.691Z,26.98
2023-10-03T01:51:09.900Z,21.60
2023-10-03T01:54:12.290Z,19.00
2023-10-03T01:57:14.603Z,24.33
2023-10-03T02:00:27.529Z,23.17
2023-10-03T02:03:30.882Z,27.67
2023-10-03T02:06:33.900Z,23.10
2023-10-03T02:09:36.210Z,26.42
2023-10-03T02:12:38.250Z,25.80
2023-10-03T02:15:40.686Z,22.95
2023-10-03T02:18:43.297Z,24.40
2023-10-03T02:21:47.724Z,27.88
2023-10-03T02:24:49.863Z,28.05
2023-10-03T02:27:54.392Z,25.05
2023-10-03T02:30:58.790Z,24.88
2023-10-03T02:34:03.718Z,25.38
2023-10-03T02:37:06.198Z,25.48
2023-10-03T02:40:08.983Z,23.00
2023-10-03T02:43:12.245Z,29.17
2023-10-03T02:46:14.721Z,28.13
2023-10-03T02:49:16.912Z,24.70
2023-10-03T02:52:20.026Z,27.15
2023-10-03T02:55:23.771Z,34.78
2023-10-03T02:58:26.020Z,32.15
2023-10-03T03:01:29.001Z,33.25
2023-10-03T03:04:31.170Z,25.85
2023-10-03T03:07:33.527Z,25.48
2023-10-03T03:10:36.437Z,24.42
2023-10-03T03:13:38.664Z,24.50
2023-10-03T03:16:41.708Z,27.73
2023-10-03T03:19:45.623Z,27.63
2023-10-03T03:22:52.083Z,22.75
2023-10-03T03:26:03.919Z,23.80
2023-10-03T03:29:22.537Z,24.70
2023-10-03T03:32:28.675Z,22.52
2023-10-03T03:35:39.231Z,23.85
2023-10-03T03:38:42.852Z,23.00
2023-10-03T03:41:45.524Z,21.08
2023-10-03T03:44:48.052Z,26.15
2023-10-03T03:47:53.428Z,28.27
2023-10-03T03:50:56.101Z,26.67
2023-10-03T03:54:00.917Z,26.45
2023-10-03T03:57:03.872Z,27.67
2023-10-03T04:00:15.203Z,36.75
2023-10-03T04:03:18.257Z,40.90
2023-10-03T04:06:21.450Z,45.22
2023-10-03T04:09:23.775Z,50.03
2023-10-03T04:12:26.561Z,46.17
2023-10-03T04:15:29.315Z,43.78
2023-10-03T04:18:31.711Z,48.65
2023-10-03T04:21:34.371Z,48.00
2023-10-03T04:24:36.759Z,44.65
2023-10-03T04:27:39.034Z,45.28
2023-10-03T04:30:42.581Z,44.22
2023-10-03T04:33:46.512Z,43.63
2023-10-03T04:36:49.148Z,42.38
2023-10-03T04:39:51.548Z,46.15
2023-10-03T04:42:54.789Z,44.08
2023-10-03T04:45:58.131Z,43.33
2023-10-03T04:49:02.903Z,40.28
2023-10-03T04:52:09.020Z,43.80
2023-10-03T04:55:11.469Z,47.42
2023-10-03T04:58:13.914Z,39.65
2023-10-03T05:01:16.293Z,42.15
2023-10-03T05:04:18.921Z,41.72
2023-10-03T05:07:21.048Z,40.15
2023-10-03T05:10:30.259Z,34.83
2023-10-03T05:13:32.664Z,30.92
2023-10-03T05:16:36.301Z,30.17
2023-10-03T05:19:38.632Z,29.27
2023-10-03T05:22:42.172Z,29.05
2023-10-03T05:25:44.781Z,32.22
2023-10-03T05:28:47.173Z,29.88
2023-10-03T05:31:49.453Z,33.13
2023-10-03T05:34:53.482Z,39.67
2023-10-03T05:37:56.863Z,37.55
2023-10-03T05:40:59.137Z,37.83
2023-10-03T05:44:01.428Z,41.50
2023-10-03T05:47:04.601Z,40.42
2023-10-03T05:50:08.211Z,50.38
2023-10-03T05:53:11.152Z,43.58
2023-10-03T05:56:14.271Z,43.78
2023-10-03T05:59:16.762Z,51.55
2023-10-03T06:02:18.849Z,42.33
2023-10-03T06:05:23.368Z,41.25
2023-10-03T06:08:25.812Z,44.25
2023-10-03T06:11:28.299Z,44.22
2023-10-03T06:14:30.479Z,44.80
2023-10-03T06:17:33.558Z,39.20
2023-10-03T06:20:37.136Z,41.22
2023-10-03T06:23:39.934Z,40.50
2023-10-03T06:26:46.575Z,37.20
2023-10-03T06:29:49.217Z,35.33
2023-10-03T06:32:52.531Z,36.60
2023-10-03T06:35:54.973Z,33.65
2023-10-03T06:38:59.259Z,31.73
2023-10-03T06:42:01.771Z,29.15
2023-10-03T06:45:10.935Z,28.10
2023-10-03T06:48:13.403Z,24.15
2023-10-03T06:51:18.413Z,24.00
2023-10-03T06:54:21.418Z,21.10
2023-10-03T06:57:23.965Z,22.92
2023-10-03T07:00:26.430Z,20.70
2023-10-03T07:03:28.989Z,26.55
2023-10-03T07:06:32.169Z,23.10
2023-10-03T07:09:34.252Z,21.25
2023-10-03T07:12:36.570Z,17.67
2023-10-03T07:15:40.622Z,18.75
2023-10-03T07:18:45.081Z,20.75
2023-10-03T07:21:47.297Z,20.15
2023-10-03T07:24:52.293Z,18.58
2023-10-03T07:27:54.591Z,21.45
2023-10-03T07:30:57.333Z,19.23
2023-10-03T07:33:59.709Z,15.55
2023-10-03T07:37:02.043Z,19.58
2023-10-03T07:40:06.904Z,16.25
2023-10-03T07:43:13.534Z,15.55
2023-10-03T07:46:22.200Z,13.70
2023-10-03T07:49:24.454Z,12.98
2023-10-03T07:52:28.550Z,14.02
2023-10-03T07:55:34.236Z,13.82
2023-10-03T07:58:36.511Z,12.80
2023-10-03T08:01:57.496Z,16.60
2023-10-03T08:05:02.168Z,15.73
2023-10-03T08:08:05.693Z,19.75
2023-10-03T08:11:08.820Z,14.93
2023-10-03T08:14:14.795Z,20.00
2023-10-03T08:17:17.324Z,16.33
2023-10-03T08:20:20.101Z,14.93
2023-10-03T08:23:22.470Z,14.40
2023-10-03T08:26:29.371Z,13.75
2023-10-03T08:29:33.499Z,14.45
2023-10-03T08:32:41.357Z,15.13
2023-10-03T08:35:44.163Z,11.52
2023-10-03T08:38:46.360Z,15.10
2023-10-03T08:41:58.847Z,11.27
2023-10-03T08:45:18.043Z,13.20
2023-10-03T08:48:35.678Z,13.85
2023-10-03T08:51:38.300Z,13.90
2023-10-03T08:54:43.082Z,15.90
2023-10-03T08:57:49.239Z,12.13
2023-10-03T09:00:51.801Z,12.85
2023-10-03T09:04:00.018Z,13.48
2023-10-03T09:07:02.176Z,10.83
2023-10-03T09:10:11.775Z,14.65
2023-10-03T09:13:17.806Z,12.38
2023-10-03T09:16:21.777Z,10.68
2023-10-03T09:19:45.572Z,9.88
2023-10-03T09:22:48.331Z,12.75
2023-10-03T09:25:57.119Z,13.95
2023-10-03T09:29:00.364Z,10.48
2023-10-03T09:32:14.954Z,11.85
2023-10-03T09:35:17.872Z,9.55
2023-10-03T09:38:26.444Z,8.95
2023-10-03T09:41:31.101Z,9.15
2023-10-03T09:44:33.291Z,10.18
2023-10-03T09:47:39.390Z,10.45
2023-10-03T09:50:52.986Z,12.48
2023-10-03T09:53:57.833Z,11.18
2023-10-03T09:57:02.152Z,13.48
2023-10-03T10:00:24.713Z,12.25
2023-10-03T10:03:34.808Z,10.35
2023-10-03T10:06:48.969Z,12.13
2023-10-03T10:10:08.900Z,10.57
2023-10-03T10:13:25.425Z,12.90
2023-10-03T10:16:29.736Z,12.93
2023-10-03T10:20:11.228Z,9.60
2023-10-03T10:23:13.876Z,23.67
2023-10-03T10:26:32.017Z,12.13
2023-10-03T10:29:37.102Z,10.23
2023-10-03T10:32:44.257Z,14.75
2023-10-03T10:36:01.240Z,14.45
2023-10-03T10:39:04.909Z,11.70
2023-10-03T10:42:11.372Z,9.75
2023-10-03T10:45:22.105Z,13.50
2023-10-03T10:48:47.599Z,14.27
2023-10-03T10:52:01.001Z,10.35
2023-10-03T10:55:06.776Z,13.65
2023-10-03T10:58:14.234Z,9.95
2023-10-03T11:01:18.287Z,10.77
2023-10-03T11:04:27.276Z,15.23
2023-10-03T11:07:30.869Z,9.88
2023-10-03T11:10:35.714Z,10.18
2023-10-03T11:13:57.965Z,9.52
2023-10-03T11:17:05.987Z,10.00
2023-10-03T11:20:13.544Z,7.90
2023-10-03T11:23:19.603Z,10.50
2023-10-03T11:26:22.170Z,8.75
2023-10-03T11:29:46.656Z,12.15
2023-10-03T11:32:49.881Z,15.27
2023-10-03T11:35:55.820Z,9.43
2023-10-03T11:39:03.770Z,9.40
2023-10-03T11:42:24.837Z,13.40
2023-10-03T11:45:31.766Z,9.35
2023-10-03T11:48:35.792Z,10.15
2023-10-03T11:51:44.116Z,10.60
2023-10-03T11:54:47.464Z,11.52
2023-10-03T11:57:50.940Z,10.30
2023-10-03T12:00:53.233Z,10.73
2023-10-03T12:03:55.848Z,8.82
2023-10-03T12:06:58.233Z,15.68
2023-10-03T12:10:00.837Z,11.10
2023-10-03T12:13:03.971Z,11.93
2023-10-03T12:16:06.231Z,15.23
2023-10-03T12:19:08.872Z,12.32
2023-10-03T12:22:11.911Z,16.70
2023-10-03T12:25:16.608Z,11.18
2023-10-03T12:28:18.918Z,13.38
2023-10-03T12:31:26.866Z,11.77
2023-10-03T12:34:31.281Z,12.15
2023-10-03T12:37:34.006Z,12.30
2023-10-03T12:40:36.347Z,10.65
2023-10-03T12:43:38.814Z,12.52
2023-10-03T12:46:41.266Z,12.13
2023-10-03T12:49:43.353Z,13.60
2023-10-03T12:52:45.641Z,9.82
2023-10-03T12:55:47.820Z,8.73
2023-10-03T12:58:50.214Z,13.15
2023-10-03T13:01:52.875Z,10.82
2023-10-03T13:04:55.245Z,11.48
2023-10-03T13:07:57.937Z,14.60
2023-10-03T13:11:02.598Z,13.95
2023-10-03T13:14:06.484Z,11.80
2023-10-03T13:17:10.780Z,9.40
2023-10-03T13:20:14.516Z,11.93
2023-10-03T13:23:16.602Z,7.80
2023-10-03T13:26:18.659Z,8.73
2023-10-03T13:29:21.589Z,29.63
2023-10-03T13:32:24.401Z,27.67
2023-10-03T13:35:27.242Z,31.58
2023-10-03T13:38:31.119Z,36.95
2023-10-03T13:41:35.693Z,11.85
2023-10-03T13:44:39.128Z,26.50
2023-10-03T13:47:43.061Z,11.50
2023-10-03T13:50:48.697Z,13.13
2023-10-03T13:53:51.518Z,10.90
2023-10-03T13:56:53.904Z,10.05
2023-10-03T13:59:56.529Z,12.32
2023-10-03T14:03:07.137Z,9.13
2023-10-03T14:06:16.618Z,10.10
2023-10-03T14:09:20.227Z,8.75
2023-10-03T14:12:22.899Z,12.25
2023-10-03T14:15:25.221Z,9.23
2023-10-03T14:18:27.649Z,9.82
2023-10-03T14:21:43.730Z,9.15
2023-10-03T14:24:49.100Z,10.07
2023-10-03T14:27:51.480Z,14.00
2023-10-03T14:30:54.563Z,10.60
2023-10-03T14:33:57.875Z,16.02
2023-10-03T14:36:59.917Z,8.80
2023-10-03T14:40:02.071Z,8.30
2023-10-03T14:43:04.882Z,9.80
2023-10-03T14:46:08.039Z,14.50
2023-10-03T14:49:11.633Z,14.00
2023-10-03T14:52:14.988Z,13.73
2023-10-03T14:55:23.819Z,11.82
2023-10-03T14:58:26.703Z,10.23
2023-10-03T15:01:29.129Z,8.40
2023-10-03T15:04:32.098Z,12.45
2023-10-03T15:07:35.926Z,10.23
2023-10-03T15:10:38.753Z,8.52
2023-10-03T15:13:41.036Z,11.57
2023-10-03T15:16:43.353Z,10.23
2023-10-03T15:19:45.686Z,10.55
2023-10-03T15:22:49.299Z,11.70
2023-10-03T15:25:52.859Z,8.52
2023-10-03T15:28:56.131Z,11.68
2023-10-03T15:31:58.269Z,11.40
2023-10-03T15:35:07.683Z,26.48
2023-10-03T15:38:09.900Z,21.55
2023-10-03T15:41:15.421Z,17.60
2023-10-03T15:44:19.352Z,15.07
2023-10-03T15:47:24.574Z,10.82
2023-10-03T15:50:28.376Z,15.90
2023-10-03T15:53:30.728Z,13.40
2023-10-03T15:56:34.048Z,13.90
2023-10-03T15:59:36.503Z,12.95
2023-10-03T16:02:39.976Z,10.95
2023-10-03T16:05:42.548Z,12.18
2023-10-03T16:08:45.842Z,13.45
2023-10-03T16:11:49.870Z,13.05
2023-10-03T16:14:52.224Z,12.38
2023-10-03T16:17:55.209Z,15.10
2023-10-03T16:20:57.936Z,13.95
2023-10-03T16:24:01.831Z,14.02
2023-10-03T16:27:04.785Z,13.02
2023-10-03T16:30:08.013Z,15.02
2023-10-03T16:33:12.214Z,15.90
2023-10-03T16:36:14.947Z,14.65
2023-10-03T16:39:17.158Z,15.30
2023-10-03T16:42:19.977Z,12.27
2023-10-03T16:45:23.041Z,16.45
2023-10-03T16:48:25.900Z,15.25
2023-10-03T16:51:28.842Z,14.73
2023-10-03T16:54:32.109Z,15.63
2023-10-03T16:57:35.004Z,18.85
2023-10-03T17:00:37.544Z,14.73
2023-10-03T17:03:40.402Z,14.73
2023-10-03T17:06:43.421Z,17.42
2023-10-03T17:09:47.005Z,21.05
2023-10-03T17:12:50.279Z,15.43
2023-10-03T17:15:53.718Z,16.92
2023-10-03T17:18:56.946Z,18.27
2023-10-03T17:22:00.454Z,17.00
2023-10-03T17:25:04.127Z,16.58
2023-10-03T17:28:07.455Z,18.90
2023-10-03T17:31:10.678Z,20.27
2023-10-03T17:34:14.590Z,15.35
2023-10-03T17:37:18.572Z,16.52
2023-10-03T17:40:27.348Z,19.35
2023-10-03T17:43:32.638Z,20.80
2023-10-03T17:46:36.253Z,18.88
2023-10-03T17:49:40.117Z,21.20
2023-10-03T17:52:45.073Z,15.60
2023-10-03T17:55:49.825Z,15.95
2023-10-03T17:58:53.087Z,21.30
2023-10-03T18:01:56.669Z,23.38
2023-10-03T18:05:00.554Z,23.20
2023-10-03T18:08:06.343Z,16.95
2023-10-03T18:11:10.622Z,16.67
2023-10-03T18:14:15.065Z,22.35
2023-10-03T18:17:20.145Z,19.55
2023-10-03T18:20:24.655Z,22.48
2023-10-03T18:23:31.681Z,18.73
2023-10-03T18:26:38.221Z,19.10
2023-10-03T18:29:42.471Z,17.50
2023-10-03T18:32:46.987Z,18.67
2023-10-03T18:35:51.613Z,21.60
2023-10-03T18:38:55.913Z,18.83
2023-10-03T18:42:00.092Z,22.30
2023-10-03T18:45:05.696Z,23.05
2023-10-03T18:48:11.318Z,20.15
2023-10-03T18:51:15.761Z,16.70
2023-10-03T18:54:19.869Z,20.73
2023-10-03T18:57:33.660Z,19.27
2023-10-03T19:00:39.367Z,19.25
2023-10-03T19:03:49.178Z,20.77
2023-10-03T19:06:55.637Z,18.00
2023-10-03T19:10:00.397Z,18.83
2023-10-03T19:13:05.620Z,16.92
2023-10-03T19:16:22.837Z,20.23
2023-10-03T19:19:30.544Z,18.27
2023-10-03T19:22:36.697Z,20.20
2023-10-03T19:25:47.813Z,18.05
2023-10-03T19:28:52.656Z,20.42
2023-10-03T19:31:59.122Z,21.88
2023-10-03T19:35:04.684Z,21.90
2023-10-03T19:38:13.117Z,22.13
2023-10-03T19:41:18.552Z,20.33
2023-10-03T19:44:29.243Z,23.30
2023-10-03T19:47:38.150Z,21.33
2023-10-03T19:50:46.961Z,20.55
2023-10-03T19:53:56.621Z,19.05
2023-10-03T19:57:03.899Z,17.80
2023-10-03T20:00:17.810Z,18.90
2023-10-03T20:03:25.174Z,17.05
2023-10-03T20:06:31.337Z,19.70
2023-10-03T20:09:36.438Z,21.70
2023-10-03T20:12:43.243Z,23.92
2023-10-03T20:15:48.302Z,22.42
2023-10-03T20:18:52.069Z,21.55
2023-10-03T20:21:55.403Z,20.80
2023-10-03T20:24:58.630Z,26.65
2023-10-03T20:28:02.439Z,25.55
2023-10-03T20:31:06.043Z,22.35
2023-10-03T20:34:10.889Z,27.83
2023-10-03T20:37:15.660Z,21.42
2023-10-03T20:40:18.807Z,23.23
2023-10-03T20:43:24.422Z,21.83
2023-10-03T20:46:26.629Z,20.75
2023-10-03T20:49:29.095Z,24.40
2023-10-03T20:52:31.561Z,26.00
2023-10-03T20:55:35.941Z,30.65
2023-10-03T20:58:38.143Z,28.25
2023-10-03T21:01:40.532Z,29.30
2023-10-03T21:04:43.951Z,30.83
2023-10-03T21:07:47.546Z,33.55
2023-10-03T21:10:49.584Z,26.27
2023-10-03T21:13:52.104Z,27.92
2023-10-03T21:16:54.296Z,31.83
2023-10-03T21:19:57.457Z,27.50
2023-10-03T21:22:59.816Z,26.77
2023-10-03T21:26:08.936Z,23.60
2023-10-03T21:29:11.236Z,23.13
2023-10-03T21:32:14.157Z,22.90
2023-10-03T21:35:19.222Z,33.65
2023-10-03T21:38:22.261Z,27.30
2023-10-03T21:41:24.741Z,24.55
2023-10-03T21:44:26.883Z,23.08
2023-10-03T21:47:29.288Z,23.67
2023-10-03T21:50:31.683Z,23.95
2023-10-03T21:53:36.538Z,24.80
2023-10-03T21:56:39.519Z,31.67
2023-10-03T21:59:41.925Z,33.30
2023-10-03T22:02:44.915Z,32.05
2023-10-03T22:05:47.632Z,36.85
2023-10-03T22:08:50.383Z,34.92
2023-10-03T22:11:53.188Z,29.55
2023-10-03T22:14:55.263Z,27.45
2023-10-03T22:17:58.030Z,23.55
2023-10-03T22:21:00.585Z,22.73
2023-10-03T22:24:03.078Z,24.70
2023-10-03T22:27:05.446Z,29.63
2023-10-03T22:30:10.122Z,25.13
2023-10-03T22:33:12.286Z,26.38
2023-10-03T22:36:15.057Z,29.02
2023-10-03T22:39:17.624Z,29.77
2023-10-03T22:42:20.018Z,26.45
2023-10-03T22:45:22.413Z,31.70
2023-10-03T22:48:24.831Z,33.17
2023-10-03T22:51:27.296Z,31.02
2023-10-03T22:54:29.744Z,26.98
2023-10-03T22:57:32.157Z,30.65
2023-10-03T23:00:34.775Z,30.15
2023-10-03T23:03:37.177Z,27.05
2023-10-03T23:06:39.630Z,25.80
2023-10-03T23:09:41.979Z,28.58
2023-10-03T23:12:44.764Z,22.30
2023-10-03T23:15:47.154Z,25.83
2023-10-03T23:18:49.357Z,26.33
2023-10-03T23:21:51.726Z,23.98
2023-10-03T23:24:54.161Z,21.60
2023-10-03T23:27:56.267Z,23.85
2023-10-03T23:30:58.305Z,26.35
2023-10-03T23:34:01.027Z,25.67
2023-10-03T23:37:04.500Z,24.60
2023-10-03T23:40:14.776Z,29.65
2023-10-03T23:43:18.801Z,27.48
2023-10-03T23:46:23.338Z,25.83
2023-10-03T23:49:25.798Z,30.42
2023-10-03T23:52:27.923Z,27.02
2023-10-03T23:55:31.357Z,28.10
2023-10-03T23:58:35.232Z,22.85
